Time;durP1;ratioP1;P1;durP2;ratioP2;P2;SDS_P1;SDS_P2;PMS_P1;PMS_P2;Temp;Humidity;BMP_temperature;BMP_pressure;BME280_temperature;BME280_humidity;BME280_pressure;Samples;Min_cycle;Max_cycle;Signal;HPM_P1;HPM_P2
2021/08/20 00:00:28;;;;;;;5.43;1.80;;;31.40;48.40;;;;;;5057146;28;20027;-55
2021/08/20 00:02:54;;;;;;;5.05;1.95;;;31.40;48.50;;;;;;5057297;28;20017;-55
2021/08/20 00:05:21;;;;;;;12.57;2.67;;;31.40;48.50;;;;;;5056518;28;20472;-56
2021/08/20 00:07:48;;;;;;;9.80;2.50;;;31.30;49.30;;;;;;5057392;28;20025;-56
2021/08/20 00:10:16;;;;;;;9.40;2.28;;;31.30;48.60;;;;;;5057575;28;20032;-56
2021/08/20 00:12:42;;;;;;;9.13;2.42;;;31.30;47.20;;;;;;5058677;28;20028;-55
2021/08/20 00:15:10;;;;;;;13.88;2.50;;;31.30;47.50;;;;;;5056596;28;20040;-55
2021/08/20 00:17:37;;;;;;;11.65;2.70;;;31.30;48.10;;;;;;5057688;28;20120;-54
2021/08/20 00:20:04;;;;;;;10.10;2.83;;;31.20;48.30;;;;;;5056458;28;20400;-54
2021/08/20 00:22:31;;;;;;;11.02;2.50;;;31.20;48.30;;;;;;5057166;28;20499;-54
2021/08/20 00:24:58;;;;;;;8.85;2.20;;;31.20;48.50;;;;;;5056606;28;20017;-55
2021/08/20 00:27:24;;;;;;;10.07;2.50;;;31.20;48.60;;;;;;5057252;28;20033;-57
2021/08/20 00:29:51;;;;;;;9.60;2.72;;;31.20;48.90;;;;;;5057074;28;20021;-55
2021/08/20 00:32:17;;;;;;;7.15;2.28;;;31.10;48.20;;;;;;5056274;28;20108;-55
2021/08/20 00:34:44;;;;;;;8.32;2.33;;;31.10;48.00;;;;;;5056513;28;20017;-54
2021/08/20 00:37:10;;;;;;;6.80;2.50;;;31.10;48.60;;;;;;5056547;28;20033;-55
2021/08/20 00:39:39;;;;;;;10.77;2.47;;;31.10;48.70;;;;;;5056214;28;20075;-54
2021/08/20 00:42:09;;;;;;;10.45;2.60;;;31.10;49.20;;;;;;5056812;28;20017;-54
2021/08/20 00:44:36;;;;;;;9.25;2.70;;;31.10;49.50;;;;;;5057335;28;20017;-54
2021/08/20 00:47:02;;;;;;;9.80;2.22;;;31.00;49.70;;;;;;5056011;28;20044;-54
2021/08/20 00:49:29;;;;;;;9.23;2.40;;;31.00;50.00;;;;;;5056213;28;20074;-55
2021/08/20 00:51:56;;;;;;;9.23;2.10;;;31.00;50.20;;;;;;5056705;28;20067;-54
2021/08/20 00:54:23;;;;;;;7.70;2.25;;;31.00;50.30;;;;;;5056866;28;20017;-54
2021/08/20 00:56:50;;;;;;;10.38;2.50;;;31.00;50.50;;;;;;5055616;28;20025;-54
2021/08/20 00:59:17;;;;;;;9.57;2.65;;;31.00;50.60;;;;;;5056012;28;20028;-55
2021/08/20 01:01:44;;;;;;;6.15;1.98;;;31.00;50.70;;;;;;5056479;28;20505;-54
2021/08/20 01:04:11;;;;;;;6.90;2.35;;;31.00;50.60;;;;;;5056634;28;20152;-54
2021/08/20 01:06:39;;;;;;;8.07;2.03;;;31.00;50.70;;;;;;5056148;28;20032;-54
2021/08/20 01:09:07;;;;;;;10.15;2.60;;;31.00;50.90;;;;;;5056366;28;20173;-55
2021/08/20 01:11:34;;;;;;;6.30;2.42;;;31.00;50.90;;;;;;5055685;28;20454;-54
2021/08/20 01:14:01;;;;;;;9.30;2.78;;;31.00;50.60;;;;;;5056329;28;20021;-54
2021/08/20 01:16:29;;;;;;;7.75;2.13;;;31.00;50.50;;;;;;5056504;28;20480;-55
2021/08/20 01:18:55;;;;;;;5.13;2.03;;;31.00;50.70;;;;;;5056244;28;20059;-55
2021/08/20 01:21:24;;;;;;;4.43;2.03;;;31.00;50.80;;;;;;5056092;28;20117;-54
2021/08/20 01:23:54;;;;;;;4.68;2.10;;;31.00;51.10;;;;;;5055745;28;20024;-54
2021/08/20 01:26:21;;;;;;;5.82;2.20;;;31.00;51.20;;;;;;5054392;28;20028;-55
2021/08/20 01:28:47;;;;;;;7.00;2.20;;;31.00;51.40;;;;;;5076007;28;20055;-54
2021/08/20 01:31:16;;;;;;;6.65;2.00;;;31.00;51.30;;;;;;5075658;28;20027;-54
2021/08/20 01:33:43;;;;;;;5.28;1.80;;;30.90;51.40;;;;;;5075917;28;20064;-55
2021/08/20 01:36:10;;;;;;;8.27;2.22;;;30.90;51.70;;;;;;5069225;28;20055;-54
2021/08/20 01:38:50;;;;;;;6.20;2.03;;;31.00;51.90;;;;;;5055401;28;20048;-55
2021/08/20 01:41:18;;;;;;;6.20;1.98;;;30.90;51.60;;;;;;5055673;28;20032;-55
2021/08/20 01:43:45;;;;;;;8.38;2.00;;;30.90;50.50;;;;;;5055694;28;20075;-54
2021/08/20 01:46:12;;;;;;;8.75;2.10;;;30.90;49.80;;;;;;5055252;28;20472;-54
2021/08/20 01:48:51;;;;;;;8.52;2.13;;;30.80;49.10;;;;;;5055275;28;20377;-54
2021/08/20 01:51:19;;;;;;;5.97;1.92;;;30.80;49.00;;;;;;5055861;28;20021;-56
2021/08/20 01:53:47;;;;;;;7.60;2.30;;;30.80;49.20;;;;;;5056034;28;20017;-54
2021/08/20 01:56:20;;;;;;;6.35;2.10;;;30.70;49.20;;;;;;5055995;28;20056;-54
2021/08/20 01:58:47;;;;;;;6.35;1.92;;;30.70;49.50;;;;;;5054431;28;20090;-54
2021/08/20 02:01:13;;;;;;;6.53;2.13;;;30.70;49.90;;;;;;5054021;28;20017;-54
2021/08/20 02:03:40;;;;;;;5.60;1.98;;;30.70;50.10;;;;;;5055212;28;20449;-54
2021/08/20 02:06:07;;;;;;;7.65;1.83;;;30.60;49.90;;;;;;5055005;28;20028;-54
2021/08/20 02:08:33;;;;;;;9.73;2.10;;;30.60;50.00;;;;;;5054978;28;20349;-54
2021/08/20 02:11:00;;;;;;;15.38;2.17;;;30.60;49.80;;;;;;5055726;28;20024;-54
2021/08/20 02:13:27;;;;;;;13.27;1.90;;;30.50;50.50;;;;;;5054401;28;20036;-54
2021/08/20 02:15:54;;;;;;;6.95;1.70;;;30.50;49.90;;;;;;5055897;28;20094;-54
2021/08/20 02:18:20;;;;;;;11.07;2.40;;;30.50;50.10;;;;;;5057111;28;20029;-54
2021/08/20 02:20:47;;;;;;;7.72;1.70;;;30.40;50.10;;;;;;5054874;28;20103;-54
2021/08/20 02:23:14;;;;;;;6.63;1.73;;;30.40;50.40;;;;;;5050809;28;20021;-53
2021/08/20 02:25:41;;;;;;;8.95;1.88;;;30.40;50.30;;;;;;5056334;28;20096;-55
2021/08/20 02:28:08;;;;;;;7.75;1.90;;;30.40;50.60;;;;;;5054877;28;20025;-53
2021/08/20 02:30:35;;;;;;;6.07;1.80;;;30.30;50.90;;;;;;5054076;28;20098;-54
2021/08/20 02:33:01;;;;;;;6.47;1.85;;;30.30;50.90;;;;;;5053885;28;20016;-54
2021/08/20 02:35:28;;;;;;;4.45;1.63;;;30.30;50.70;;;;;;5053428;28;20079;-53
2021/08/20 02:37:55;;;;;;;8.15;1.80;;;30.30;50.70;;;;;;5053800;28;20423;-53
2021/08/20 02:40:23;;;;;;;7.32;1.60;;;30.30;51.00;;;;;;5052177;28;20099;-53
2021/08/20 02:42:50;;;;;;;5.65;1.70;;;30.20;51.10;;;;;;5053825;28;20055;-54
2021/08/20 02:45:17;;;;;;;5.45;1.60;;;30.20;51.40;;;;;;5054708;28;20453;-53
2021/08/20 02:47:46;;;;;;;7.82;1.48;;;30.10;51.10;;;;;;5054102;28;20017;-54
2021/08/20 02:50:12;;;;;;;6.28;1.60;;;30.10;51.00;;;;;;5054412;28;20104;-54
2021/08/20 02:52:39;;;;;;;5.00;1.65;;;30.10;51.10;;;;;;5052100;28;20035;-53
2021/08/20 02:55:06;;;;;;;8.70;1.80;;;30.00;50.80;;;;;;5052275;28;20096;-55
2021/08/20 02:57:33;;;;;;;5.38;1.50;;;30.00;50.80;;;;;;5053633;28;20040;-54
2021/08/20 02:59:59;;;;;;;6.40;1.48;;;30.00;51.20;;;;;;5061031;28;20024;-53
2021/08/20 03:02:26;;;;;;;7.90;2.03;;;30.00;51.10;;;;;;5066786;28;20016;-54
2021/08/20 03:04:52;;;;;;;3.47;1.50;;;30.00;51.40;;;;;;5062367;28;20024;-53
2021/08/20 03:07:19;;;;;;;6.03;1.55;;;30.00;51.10;;;;;;5058835;28;20090;-54
2021/08/20 03:09:46;;;;;;;5.80;1.77;;;29.90;51.50;;;;;;5053171;28;20029;-54
2021/08/20 03:12:12;;;;;;;3.90;1.23;;;29.90;51.50;;;;;;5070144;28;20475;-54
2021/08/20 03:14:39;;;;;;;4.60;1.30;;;29.80;51.10;;;;;;5053480;28;20039;-54
2021/08/20 03:17:05;;;;;;;3.20;1.38;;;29.80;51.40;;;;;;5062338;28;20044;-54
2021/08/20 03:19:32;;;;;;;5.85;1.60;;;29.80;51.80;;;;;;5060320;28;20318;-54
2021/08/20 03:21:58;;;;;;;7.32;1.50;;;29.70;51.40;;;;;;5062834;28;20027;-52
2021/08/20 03:24:25;;;;;;;5.85;1.45;;;29.70;51.10;;;;;;5056923;28;20075;-54
2021/08/20 03:26:51;;;;;;;7.40;1.55;;;29.70;50.90;;;;;;5065817;28;20074;-54
2021/08/20 03:29:18;;;;;;;3.30;1.25;;;29.70;51.30;;;;;;5064501;28;20024;-53
2021/08/20 03:31:44;;;;;;;8.25;1.33;;;29.60;51.00;;;;;;5058472;28;20025;-54
2021/08/20 03:34:11;;;;;;;6.28;1.30;;;29.60;50.90;;;;;;5056083;28;20076;-53
2021/08/20 03:36:38;;;;;;;5.25;1.50;;;29.60;50.80;;;;;;5068654;28;20036;-53
2021/08/20 03:39:04;;;;;;;6.28;1.40;;;29.50;51.40;;;;;;5054624;28;20052;-54
2021/08/20 03:41:31;;;;;;;3.15;1.05;;;29.50;52.00;;;;;;5053984;28;20048;-54
2021/08/20 03:43:57;;;;;;;5.03;1.30;;;29.50;52.00;;;;;;5054202;28;20021;-53
2021/08/20 03:46:24;;;;;;;3.35;1.50;;;29.40;51.60;;;;;;5052969;28;20458;-53
2021/08/20 03:48:51;;;;;;;2.63;1.20;;;29.40;51.80;;;;;;5053435;28;20056;-53
2021/08/20 03:51:17;;;;;;;5.20;1.25;;;29.40;51.70;;;;;;5053359;28;20025;-54
2021/08/20 03:53:44;;;;;;;3.22;1.30;;;29.40;51.90;;;;;;5052291;28;20100;-53
2021/08/20 03:56:10;;;;;;;5.72;1.45;;;29.30;51.90;;;;;;5052770;28;20397;-54
2021/08/20 03:58:36;;;;;;;3.05;1.17;;;29.30;52.10;;;;;;5053104;28;20037;-54
2021/08/20 04:01:07;;;;;;;3.85;1.30;;;29.30;52.20;;;;;;5053385;28;20457;-54
2021/08/20 04:03:34;;;;;;;2.38;1.10;;;29.30;52.80;;;;;;5053831;28;20031;-54
2021/08/20 04:06:00;;;;;;;4.63;1.20;;;29.20;52.10;;;;;;5057648;28;20044;-53
2021/08/20 04:08:27;;;;;;;3.85;1.38;;;29.20;52.70;;;;;;5067749;28;20036;-53
2021/08/20 04:10:54;;;;;;;5.13;1.42;;;29.20;52.50;;;;;;5063244;28;20025;-54
2021/08/20 04:13:20;;;;;;;3.30;1.30;;;29.20;52.70;;;;;;5046994;28;20048;-54
2021/08/20 04:15:47;;;;;;;3.60;1.30;;;29.20;52.50;;;;;;5053081;28;20372;-53
2021/08/20 04:18:13;;;;;;;5.97;1.38;;;29.10;52.60;;;;;;5059938;28;20032;-53
2021/08/20 04:20:42;;;;;;;3.67;1.33;;;29.10;52.60;;;;;;5052881;28;20040;-54
2021/08/20 04:23:09;;;;;;;3.25;1.58;;;29.10;52.30;;;;;;5053380;28;20017;-54
2021/08/20 04:25:36;;;;;;;4.93;1.40;;;29.00;52.20;;;;;;5052771;28;20408;-54
2021/08/20 04:28:03;;;;;;;4.47;1.38;;;29.00;52.20;;;;;;5052949;28;20404;-54
2021/08/20 04:30:30;;;;;;;4.55;1.55;;;29.00;52.20;;;;;;5053280;28;20028;-54
2021/08/20 04:32:58;;;;;;;3.10;1.30;;;29.00;52.20;;;;;;5056977;28;20117;-54
2021/08/20 04:35:26;;;;;;;3.70;1.60;;;29.00;52.30;;;;;;5056624;28;20029;-53
2021/08/20 04:37:53;;;;;;;2.40;1.40;;;28.90;52.10;;;;;;5057039;28;20465;-53
2021/08/20 04:40:20;;;;;;;3.17;1.50;;;28.90;52.20;;;;;;5056911;28;20084;-54
2021/08/20 04:42:47;;;;;;;2.05;1.30;;;28.80;52.20;;;;;;5056568;28;20031;-54
2021/08/20 04:45:15;;;;;;;2.38;1.38;;;28.80;52.20;;;;;;5056298;28;20021;-53
2021/08/20 04:47:45;;;;;;;2.20;1.40;;;28.90;52.30;;;;;;5056801;28;20111;-54
2021/08/20 04:50:13;;;;;;;4.32;1.60;;;28.80;52.20;;;;;;5056203;28;20025;-54
2021/08/20 04:52:40;;;;;;;15.32;2.33;;;28.80;52.40;;;;;;5055622;28;20024;-53
2021/08/20 04:55:07;;;;;;;9.55;1.90;;;28.70;52.30;;;;;;5056569;28;20486;-53
2021/08/20 04:57:34;;;;;;;10.52;2.03;;;28.70;52.00;;;;;;5055720;28;20174;-53
2021/08/20 05:00:01;;;;;;;3.78;1.70;;;28.70;52.00;;;;;;5054169;28;20017;-54
2021/08/20 05:02:29;;;;;;;6.97;1.83;;;28.70;52.10;;;;;;5054486;28;20364;-53
2021/08/20 05:04:56;;;;;;;6.68;1.90;;;28.70;52.20;;;;;;5054327;28;20036;-52
2021/08/20 05:07:22;;;;;;;5.75;1.90;;;28.70;52.30;;;;;;5055259;28;20448;-53
2021/08/20 05:09:49;;;;;;;5.72;1.67;;;28.60;52.20;;;;;;5056294;28;20013;-53
2021/08/20 05:12:16;;;;;;;8.63;1.85;;;28.60;52.20;;;;;;5056191;28;20515;-54
2021/08/20 05:14:42;;;;;;;5.40;1.98;;;28.60;52.60;;;;;;5056279;28;20028;-53
2021/08/20 05:17:09;;;;;;;4.78;1.80;;;28.60;52.80;;;;;;5056129;28;20035;-53
2021/08/20 05:19:36;;;;;;;5.22;1.65;;;28.60;52.80;;;;;;5056088;28;20108;-53
2021/08/20 05:22:03;;;;;;;5.00;1.58;;;28.50;52.70;;;;;;5056119;28;20028;-54
2021/08/20 05:24:29;;;;;;;2.90;1.73;;;28.50;52.70;;;;;;5055013;28;20103;-54
2021/08/20 05:26:56;;;;;;;3.47;1.70;;;28.50;52.70;;;;;;5055781;28;20388;-54
2021/08/20 05:29:22;;;;;;;5.38;1.85;;;28.40;52.70;;;;;;5055612;28;20055;-54
2021/08/20 05:31:49;;;;;;;4.47;1.50;;;28.40;52.70;;;;;;5055577;28;20071;-53
2021/08/20 05:34:16;;;;;;;5.05;1.70;;;28.40;52.70;;;;;;5055623;28;20424;-54
2021/08/20 05:36:42;;;;;;;6.03;1.70;;;28.40;52.70;;;;;;5055667;28;20021;-54
2021/08/20 05:39:09;;;;;;;3.13;1.40;;;28.40;52.60;;;;;;5051019;28;20352;-53
2021/08/20 05:41:35;;;;;;;3.13;1.40;;;28.30;52.50;;;;;;5072696;28;20395;-53
2021/08/20 05:44:02;;;;;;;2.75;1.60;;;28.30;52.80;;;;;;5074917;28;20084;-53
2021/08/20 05:46:29;;;;;;;4.65;1.67;;;28.30;52.80;;;;;;5036187;28;20040;-54
2021/08/20 05:48:55;;;;;;;7.38;1.70;;;28.20;52.60;;;;;;5035608;28;20458;-54
2021/08/20 05:51:22;;;;;;;3.83;1.77;;;28.20;52.70;;;;;;5056752;28;20538;-54
2021/08/20 05:53:48;;;;;;;6.07;1.90;;;28.20;52.80;;;;;;5055174;28;20017;-53
2021/08/20 05:56:15;;;;;;;2.78;1.60;;;28.20;52.70;;;;;;5055466;28;20470;-53
2021/08/20 05:58:41;;;;;;;5.20;1.90;;;28.10;52.80;;;;;;5055608;28;20029;-53
2021/08/20 06:01:08;;;;;;;3.13;1.42;;;28.10;52.60;;;;;;5055371;28;20567;-53
2021/08/20 06:03:34;;;;;;;3.10;1.42;;;28.10;52.60;;;;;;5054776;28;20021;-53
2021/08/20 06:06:01;;;;;;;2.72;1.60;;;28.10;52.60;;;;;;5054742;28;20027;-53
2021/08/20 06:08:27;;;;;;;3.67;1.70;;;28.10;52.60;;;;;;5055244;28;20028;-53
2021/08/20 06:10:54;;;;;;;3.63;1.63;;;28.00;52.60;;;;;;5055531;28;20398;-53
2021/08/20 06:13:20;;;;;;;4.18;1.55;;;28.00;52.60;;;;;;5054771;28;20454;-53
2021/08/20 06:15:47;;;;;;;4.28;1.83;;;27.90;52.60;;;;;;5054726;28;20139;-53
2021/08/20 06:18:13;;;;;;;3.13;1.77;;;27.90;52.70;;;;;;5055129;28;20033;-53
2021/08/20 06:20:40;;;;;;;6.93;1.88;;;27.90;52.70;;;;;;5054709;28;20025;-54
2021/08/20 06:23:07;;;;;;;3.80;1.70;;;27.90;52.70;;;;;;5053698;28;20373;-53
2021/08/20 06:25:33;;;;;;;3.88;1.60;;;27.90;52.80;;;;;;5054394;28;20029;-53
2021/08/20 06:27:59;;;;;;;4.30;1.65;;;27.90;52.80;;;;;;5054840;28;20054;-53
2021/08/20 06:30:26;;;;;;;2.63;1.42;;;27.80;52.90;;;;;;5054803;28;20021;-53
2021/08/20 06:32:53;;;;;;;3.00;1.58;;;27.80;52.90;;;;;;5055072;28;20511;-53
2021/08/20 06:35:19;;;;;;;2.42;1.42;;;27.70;52.80;;;;;;5054744;28;20469;-53
2021/08/20 06:37:45;;;;;;;2.47;1.58;;;27.70;52.80;;;;;;5054048;28;20124;-54
2021/08/20 06:43:34;;;;;;;3.38;1.63;;;27.70;52.90;;;;;;5054030;28;20511;-53
2021/08/20 06:46:00;;;;;;;2.78;1.40;;;27.60;52.70;;;;;;5054726;28;20074;-53
2021/08/20 06:48:27;;;;;;;3.78;1.60;;;27.60;52.70;;;;;;5054271;28;20120;-53
2021/08/20 06:50:53;;;;;;;2.67;1.77;;;27.60;52.80;;;;;;5054490;28;20330;-53
2021/08/20 06:53:20;;;;;;;2.83;1.63;;;27.60;52.70;;;;;;5054387;28;20021;-53
2021/08/20 06:55:47;;;;;;;3.17;1.60;;;27.50;52.80;;;;;;5053853;28;20024;-53
2021/08/20 06:58:14;;;;;;;4.43;1.58;;;27.50;52.70;;;;;;5054202;28;20025;-53
2021/08/20 07:00:41;;;;;;;2.67;1.55;;;27.50;52.70;;;;;;5053644;28;20032;-53
2021/08/20 07:03:07;;;;;;;2.45;1.38;;;27.40;52.80;;;;;;5054246;28;20024;-53
2021/08/20 07:05:34;;;;;;;5.32;1.90;;;27.40;53.10;;;;;;5054144;28;20024;-53
2021/08/20 07:08:00;;;;;;;3.13;1.70;;;27.40;53.10;;;;;;5054110;28;20067;-53
2021/08/20 07:10:27;;;;;;;3.05;1.60;;;27.30;53.10;;;;;;5054134;28;20033;-53
2021/08/20 07:12:53;;;;;;;4.45;1.55;;;27.30;53.40;;;;;;5053772;28;20029;-53
2021/08/20 07:15:20;;;;;;;3.65;1.58;;;27.30;53.30;;;;;;5053398;28;20040;-53
2021/08/20 07:17:46;;;;;;;2.78;1.33;;;27.30;53.20;;;;;;5053980;28;20064;-53
2021/08/20 07:20:13;;;;;;;2.63;1.60;;;27.20;53.40;;;;;;5053400;28;20461;-52
2021/08/20 07:22:39;;;;;;;5.25;1.70;;;27.20;53.40;;;;;;5053306;28;20350;-53
2021/08/20 07:25:06;;;;;;;2.63;1.50;;;27.20;53.40;;;;;;5053405;28;20453;-53
2021/08/20 07:27:33;;;;;;;3.15;1.60;;;27.10;53.40;;;;;;5054205;28;20027;-52
2021/08/20 07:29:59;;;;;;;2.70;1.42;;;27.10;53.30;;;;;;5053760;28;20330;-53
2021/08/20 07:32:26;;;;;;;3.38;1.65;;;27.10;53.50;;;;;;5053871;28;20461;-53
2021/08/20 07:34:52;;;;;;;3.38;1.35;;;27.10;53.50;;;;;;5053287;28;20040;-53
2021/08/20 07:37:19;;;;;;;2.05;1.35;;;27.10;53.70;;;;;;5054002;28;20083;-53
2021/08/20 07:39:45;;;;;;;2.33;1.27;;;27.00;53.70;;;;;;5051165;28;20094;-54
2021/08/20 07:42:12;;;;;;;2.80;1.40;;;27.00;53.70;;;;;;5063741;28;20021;-54
2021/08/20 07:44:39;;;;;;;3.85;1.40;;;27.00;53.70;;;;;;5053961;28;20032;-53
2021/08/20 07:47:06;;;;;;;3.42;1.40;;;26.90;53.60;;;;;;5053479;28;20036;-53
2021/08/20 07:49:32;;;;;;;2.40;1.33;;;26.90;53.70;;;;;;5053466;28;20357;-53
2021/08/20 07:51:59;;;;;;;3.05;1.40;;;26.90;53.50;;;;;;5053026;28;20689;-54
2021/08/20 07:54:25;;;;;;;4.25;1.42;;;26.90;53.60;;;;;;5053648;28;20519;-54
2021/08/20 07:56:52;;;;;;;2.97;1.55;;;26.90;53.40;;;;;;5053299;28;20508;-53
2021/08/20 07:59:18;;;;;;;2.33;1.20;;;26.80;53.40;;;;;;5053552;28;20021;-54
2021/08/20 08:01:45;;;;;;;2.83;1.42;;;26.80;53.30;;;;;;5053051;28;20025;-54
2021/08/20 08:04:12;;;;;;;3.35;1.40;;;26.70;53.30;;;;;;5053275;28;20024;-53
2021/08/20 08:06:39;;;;;;;2.00;1.35;;;26.70;53.20;;;;;;5055936;28;20082;-53
2021/08/20 08:09:06;;;;;;;4.53;1.38;;;26.70;53.50;;;;;;5057119;28;20357;-53
2021/08/20 08:11:32;;;;;;;2.40;1.40;;;26.70;53.40;;;;;;5056716;28;20017;-53
2021/08/20 08:14:09;;;;;;;4.53;1.45;;;26.60;53.30;;;;;;5057040;28;20025;-53
2021/08/20 08:16:38;;;;;;;2.67;1.40;;;26.60;53.40;;;;;;5057589;28;20053;-54
2021/08/20 08:19:06;;;;;;;2.05;1.30;;;26.60;53.50;;;;;;5056969;28;20025;-53
2021/08/20 08:21:34;;;;;;;3.70;1.60;;;26.60;53.50;;;;;;5056662;28;20354;-53
2021/08/20 08:24:00;;;;;;;2.15;1.33;;;26.50;53.40;;;;;;5057212;28;20028;-53
2021/08/20 08:26:27;;;;;;;2.67;1.25;;;26.50;53.50;;;;;;5056833;28;20446;-53
2021/08/20 08:28:54;;;;;;;2.35;1.40;;;26.50;53.60;;;;;;5057108;28;20021;-53
2021/08/20 08:31:22;;;;;;;4.88;1.60;;;26.40;53.70;;;;;;5056558;28;20029;-54
2021/08/20 08:33:50;;;;;;;3.28;1.50;;;26.40;53.70;;;;;;5056683;28;20029;-54
2021/08/20 08:36:17;;;;;;;2.45;1.20;;;26.40;53.60;;;;;;5057036;28;20021;-53
2021/08/20 08:38:43;;;;;;;2.97;1.48;;;26.30;53.70;;;;;;5056829;28;20055;-53
2021/08/20 08:41:11;;;;;;;2.20;1.17;;;26.30;53.70;;;;;;5056729;28;20028;-53
2021/08/20 08:43:37;;;;;;;3.50;1.48;;;26.30;53.80;;;;;;5056487;28;20029;-53
2021/08/20 08:46:09;;;;;;;3.45;1.30;;;26.30;53.70;;;;;;5056621;28;20064;-53
2021/08/20 08:48:40;;;;;;;3.42;1.50;;;26.20;54.40;;;;;;5056782;28;20034;-53
2021/08/20 08:51:09;;;;;;;2.58;1.40;;;26.20;54.00;;;;;;5056526;28;20394;-53
2021/08/20 08:53:36;;;;;;;2.58;1.35;;;26.20;54.00;;;;;;5056655;28;20025;-53
2021/08/20 08:56:03;;;;;;;4.60;1.38;;;26.10;54.00;;;;;;5056695;28;20025;-54
2021/08/20 08:58:30;;;;;;;2.42;1.38;;;26.10;54.10;;;;;;5056536;28;20535;-53
2021/08/20 09:00:56;;;;;;;2.65;1.23;;;26.10;54.20;;;;;;5056542;28;20155;-53
2021/08/20 09:03:28;;;;;;;2.90;1.50;;;26.10;54.20;;;;;;5055918;28;20491;-53
2021/08/20 09:05:56;;;;;;;2.25;1.10;;;26.00;54.20;;;;;;5056796;28;20017;-53
2021/08/20 09:08:24;;;;;;;4.22;1.50;;;26.00;54.30;;;;;;5056399;28;20040;-53
2021/08/20 09:11:01;;;;;;;3.42;1.35;;;26.00;54.30;;;;;;5056026;28;20024;-53
2021/08/20 09:13:29;;;;;;;3.50;1.35;;;26.00;54.30;;;;;;5056098;28;20480;-53
2021/08/20 09:16:33;;;;;;;3.17;1.33;;;25.90;54.40;;;;;;5055597;28;20045;-53
2021/08/20 09:19:20;;;;;;;2.00;1.20;;;25.90;54.50;;;;;;5042161;28;20075;-53
2021/08/20 09:21:58;;;;;;;3.17;1.35;;;25.90;54.60;;;;;;5055913;28;20350;-53
2021/08/20 09:24:38;;;;;;;4.40;1.30;;;25.90;54.60;;;;;;5056400;28;20456;-53
2021/08/20 09:27:14;;;;;;;2.10;1.17;;;25.80;54.70;;;;;;5056362;28;20033;-54
2021/08/20 09:30:06;;;;;;;3.75;1.40;;;25.80;54.70;;;;;;5055595;28;20029;-53
2021/08/20 09:32:35;;;;;;;3.03;1.23;;;25.80;54.70;;;;;;5056029;28;20441;-54
2021/08/20 09:35:03;;;;;;;1.50;1.10;;;25.70;54.80;;;;;;5056424;28;20491;-53
2021/08/20 09:37:31;;;;;;;3.50;1.20;;;25.70;54.90;;;;;;5055800;28;20115;-53
2021/08/20 09:40:02;;;;;;;2.67;1.30;;;25.70;55.00;;;;;;5056602;28;20029;-53
2021/08/20 09:42:29;;;;;;;4.30;1.30;;;25.70;55.00;;;;;;5063524;28;20027;-54
2021/08/20 09:45:15;;;;;;;2.67;1.23;;;25.70;55.00;;;;;;5070980;28;20025;-53
2021/08/20 09:47:48;;;;;;;2.63;1.33;;;25.60;55.00;;;;;;5055441;28;20033;-53
2021/08/20 09:50:15;;;;;;;1.88;1.20;;;25.60;55.00;;;;;;5055695;28;20032;-53
2021/08/20 09:52:41;;;;;;;2.45;1.40;;;25.50;54.80;;;;;;5055206;28;20017;-54
2021/08/20 09:55:08;;;;;;;2.22;1.50;;;25.50;54.80;;;;;;5055496;28;20083;-53
2021/08/20 09:57:38;;;;;;;3.25;1.30;;;25.50;54.80;;;;;;5055649;28;20107;-53
2021/08/20 10:00:10;;;;;;;2.38;1.38;;;25.40;54.90;;;;;;5054940;28;20029;-53
2021/08/20 10:02:38;;;;;;;2.97;1.30;;;25.40;55.00;;;;;;5055740;28;20032;-53
2021/08/20 10:05:06;;;;;;;2.33;1.45;;;25.40;55.00;;;;;;5055567;28;20024;-53
2021/08/20 10:07:40;;;;;;;1.77;1.13;;;25.40;54.90;;;;;;5055351;28;20056;-53
2021/08/20 10:10:08;;;;;;;2.55;1.63;;;25.40;54.90;;;;;;5055197;28;20032;-54
2021/08/20 10:12:39;;;;;;;2.08;1.33;;;25.30;54.80;;;;;;5054149;28;20074;-53
2021/08/20 10:15:07;;;;;;;3.15;1.70;;;25.30;55.00;;;;;;5054824;28;20465;-52
2021/08/20 10:17:36;;;;;;;2.20;1.00;;;25.30;55.00;;;;;;5054768;28;20458;-53
2021/08/20 10:20:03;;;;;;;2.65;1.55;;;25.20;55.10;;;;;;5054531;28;20017;-53
2021/08/20 10:22:31;;;;;;;2.90;1.75;;;25.20;55.10;;;;;;5055020;28;20021;-54
2021/08/20 10:25:02;;;;;;;5.53;1.90;;;25.20;55.10;;;;;;5054585;28;20053;-53
2021/08/20 10:27:31;;;;;;;2.72;1.30;;;25.10;55.00;;;;;;5054883;28;20064;-53
2021/08/20 10:29:58;;;;;;;3.40;1.67;;;25.10;55.10;;;;;;5054197;28;20035;-54
2021/08/20 10:32:25;;;;;;;2.85;1.60;;;25.10;55.10;;;;;;5055640;28;20060;-53
2021/08/20 10:34:51;;;;;;;3.00;1.50;;;25.10;55.20;;;;;;5054601;28;20083;-54
2021/08/20 10:37:26;;;;;;;2.70;1.90;;;25.10;55.10;;;;;;5054304;28;20412;-53
2021/08/20 10:39:56;;;;;;;2.90;1.55;;;25.10;55.20;;;;;;5054734;28;20021;-52
2021/08/20 10:42:41;;;;;;;2.17;1.50;;;25.00;55.20;;;;;;5053923;28;20025;-54
2021/08/20 10:45:12;;;;;;;4.00;1.60;;;25.00;55.30;;;;;;5054143;28;20482;-53
2021/08/20 10:47:40;;;;;;;2.50;1.33;;;25.00;55.30;;;;;;5054585;28;20025;-53
2021/08/20 10:50:20;;;;;;;2.22;1.48;;;24.90;55.30;;;;;;5054444;28;20526;-53
2021/08/20 10:52:49;;;;;;;3.03;1.73;;;24.90;55.20;;;;;;5054379;28;20070;-53
2021/08/20 10:55:22;;;;;;;2.90;1.67;;;24.90;55.20;;;;;;5054294;28;20023;-53
2021/08/20 10:57:52;;;;;;;2.78;1.67;;;24.90;55.20;;;;;;5054022;28;20537;-53
2021/08/20 11:00:19;;;;;;;2.70;1.58;;;24.90;55.20;;;;;;5054693;28;20020;-53
2021/08/20 11:02:50;;;;;;;2.58;1.83;;;24.80;55.10;;;;;;5055176;28;20059;-54
2021/08/20 11:05:19;;;;;;;2.97;1.75;;;24.80;55.30;;;;;;5054529;28;20343;-54
2021/08/20 11:07:46;;;;;;;3.85;1.75;;;24.80;55.30;;;;;;5053909;28;20024;-54
2021/08/20 11:10:13;;;;;;;3.72;1.70;;;24.80;55.20;;;;;;5054222;28;20396;-53
2021/08/20 11:12:41;;;;;;;2.45;1.52;;;24.70;55.20;;;;;;5053782;28;20512;-53
2021/08/20 11:15:26;;;;;;;5.22;1.75;;;24.70;55.30;;;;;;5053680;28;20052;-54
2021/08/20 11:18:03;;;;;;;2.15;1.60;;;24.70;55.40;;;;;;5054176;28;20036;-53
2021/08/20 11:20:35;;;;;;;3.08;1.65;;;24.60;55.50;;;;;;5053948;28;20029;-53
2021/08/20 11:23:06;;;;;;;2.90;1.90;;;24.60;55.50;;;;;;5054590;28;20012;-53
2021/08/20 11:25:52;;;;;;;3.50;1.70;;;24.60;55.50;;;;;;5053905;28;20381;-54
2021/08/20 11:28:20;;;;;;;3.00;1.75;;;24.60;55.50;;;;;;5053652;28;20021;-53
2021/08/20 11:30:58;;;;;;;2.97;1.77;;;24.50;55.50;;;;;;5053795;28;20036;-53
2021/08/20 11:33:29;;;;;;;5.85;2.05;;;24.60;55.60;;;;;;5053496;28;20025;-53
2021/08/20 11:35:57;;;;;;;;;;;24.50;55.60;;;;;;5054619;28;20017;-53
2021/08/20 11:38:32;;;;;;;3.65;1.90;;;24.50;55.70;;;;;;5054478;28;19917;-52
2021/08/20 11:41:03;;;;;;;3.78;2.20;;;24.40;55.40;;;;;;5054054;28;20032;-53
2021/08/20 11:43:31;;;;;;;4.10;1.90;;;24.40;55.40;;;;;;5050302;28;20458;-53
2021/08/20 11:46:00;;;;;;;5.97;2.20;;;24.40;55.40;;;;;;5053159;28;20358;-52
2021/08/20 11:48:29;;;;;;;2.90;1.70;;;24.40;55.30;;;;;;5053633;28;20037;-53
2021/08/20 11:50:57;;;;;;;3.53;2.20;;;24.40;55.30;;;;;;5053909;28;20057;-52
2021/08/20 11:53:25;;;;;;;5.15;1.90;;;24.30;55.20;;;;;;5053272;28;20024;-53
2021/08/20 11:56:07;;;;;;;3.75;2.13;;;24.30;55.30;;;;;;5052906;28;20033;-52
2021/08/20 11:58:34;;;;;;;5.85;2.45;;;24.30;55.30;;;;;;5053843;28;20021;-53
2021/08/20 12:01:01;;;;;;;2.60;1.77;;;24.30;55.40;;;;;;5053297;28;20051;-52
2021/08/20 12:03:27;;;;;;;3.28;2.10;;;24.20;55.50;;;;;;5052948;28;20437;-54
2021/08/20 12:06:11;;;;;;;5.05;2.20;;;24.20;55.40;;;;;;5053169;28;20051;-53
2021/08/20 12:08:38;;;;;;;4.47;2.00;;;24.20;55.40;;;;;;5053458;28;20028;-54
2021/08/20 12:11:07;;;;;;;3.00;2.03;;;24.20;56.10;;;;;;5053488;28;20017;-53
2021/08/20 12:13:49;;;;;;;3.95;1.88;;;24.10;55.50;;;;;;5053024;28;20028;-53
2021/08/20 12:16:34;;;;;;;3.53;1.90;;;24.10;55.50;;;;;;5053580;28;20524;-53
2021/08/20 12:19:10;;;;;;;3.47;2.05;;;24.10;55.60;;;;;;5053286;28;20037;-54
2021/08/20 12:21:37;;;;;;;2.53;1.80;;;24.00;55.60;;;;;;5053664;28;20036;-53
2021/08/20 12:24:07;;;;;;;3.33;2.17;;;24.00;55.60;;;;;;5053387;28;20048;-53
2021/08/20 12:26:34;;;;;;;3.17;2.10;;;24.00;55.60;;;;;;5053276;28;20028;-53
2021/08/20 12:29:16;;;;;;;5.47;2.10;;;24.00;55.70;;;;;;5053325;28;20461;-53
2021/08/20 12:31:57;;;;;;;3.38;2.15;;;23.90;56.30;;;;;;5053325;28;20048;-53
2021/08/20 12:34:32;;;;;;;3.78;2.15;;;23.90;55.70;;;;;;5053278;28;20459;-53
2021/08/20 12:37:04;;;;;;;3.00;1.92;;;23.90;55.70;;;;;;5053020;28;20021;-53
2021/08/20 12:39:37;;;;;;;3.45;2.17;;;23.90;55.70;;;;;;5054006;28;20500;-53
2021/08/20 12:42:45;;;;;;;4.07;2.30;;;23.90;55.70;;;;;;5053175;28;20070;-53
2021/08/20 12:45:18;;;;;;;5.07;2.20;;;23.80;55.80;;;;;;5032431;28;20163;-53
2021/08/20 12:48:03;;;;;;;3.25;1.95;;;23.80;55.80;;;;;;5052811;28;20454;-53
2021/08/20 12:50:30;;;;;;;4.25;2.03;;;23.80;55.80;;;;;;5052085;28;20339;-53
2021/08/20 12:53:10;;;;;;;3.80;1.92;;;23.80;55.80;;;;;;5054193;28;20361;-53
2021/08/20 12:55:46;;;;;;;4.13;2.13;;;23.70;55.80;;;;;;5056381;28;20017;-53